METAR Data
IDs: Format: Raw Decoded Include TAF

Data at: 1107 UTC 26 Sep 2018

KCOU 261054Z AUTO 31005KT 10SM CLR 11/09 A3020 RMK AO2 SLP220 T01060089
KCOU 260954Z AUTO 31005KT 10SM CLR 11/09 A3018 RMK AO2 SLP214 T01110094
KCOU 260854Z AUTO 33006KT 10SM CLR 12/11 A3016 RMK AO2 SLP208 T01220106 53015
KCOU 260754Z AUTO 34010KT 10SM BKN070 13/11 A3015 RMK AO2 SLP202 T01330106
KCOU 260654Z AUTO 34011KT 10SM BKN060 OVC085 14/11 A3013 RMK AO2 SLP195 T01390111
KCOU 260554Z AUTO 34009KT 10SM FEW014 BKN050 OVC065 14/13 A3012 RMK AO2 RAE37 TSE0457 SLP191 P0006 60027 T01440128 10233 20144 403000144 51030
KCOU 260511Z AUTO 34010KT 6SM RA BR FEW010 BKN055 OVC070 14/13 A3011 RMK AO2 LTG DSNT S AND SW TSE0457 P0002 T01440128
KCOU 260459Z AUTO 35014KT 10SM -RA SCT010 BKN025 OVC055 14/13 A3010 RMK AO2 LTG DSNT E AND W TSE57 P0000 T01440128
KCOU 260454Z AUTO 35011G20KT 10SM -TSRA BKN010 OVC025 15/13 A3010 RMK AO2 PK WND 33027/0402 LTG DSNT E AND W RAB0358 TSB42 SLP185 P0021 T01500133
KCOU 260441Z AUTO 35014KT 5SM -RA BR BKN009 BKN038 15/13 A3009 RMK AO2 PK WND 33027/0402 RAB0358 P0021 T01500133
KCOU 260419Z AUTO 35012KT 3SM RA BR SCT016 BKN031 OVC046 16/13 A3007 RMK AO2 PK WND 33027/0402 RAB0358 P0007 T01560133
KCOU 260354Z AUTO 35016G28KT 10SM OVC018 18/13 A3007 RMK AO2 PK WND 34028/0345 LTG DSNT N SLP174 T01780133
KCOU 260254Z AUTO 34016G23KT 10SM SCT017 OVC022 19/15 A3002 RMK AO2 SLP160 T01940150 51038
KCOU 260245Z AUTO 33018G23KT 10SM BKN024 BKN085 21/16 A3002 RMK AO2 T02060156
KCOU 260154Z 35013KT 10SM CLR 22/17 A2999 RMK AO2 SLP149 T02220167
KCOU 260054Z 34008KT 10SM BKN085 23/18 A2995 RMK AO2 SLP134 T02330183
KCOU 260020Z 34014G19KT 10SM FEW060 BKN095 25/18 A2993 RMK AO2 T02500178
KCOU 252354Z 28006KT 10SM BKN070 OVC095 26/17 A2991 RMK AO2 SLP120 T02610172 10300 20261 53012
KCOU 252254Z 28008KT 10SM SCT085 27/17 A2989 RMK AO2 SLP115 T02720172
KCOU 252154Z 28010KT 10SM BKN075 28/17 A2988 RMK AO2 SLP110 T02830172
KCOU 252054Z 24012G21KT 10SM SCT049 BKN070 28/17 A2987 RMK AO2 SLP108 T02780172 56015
KCOU 251954Z 22015G23KT 10SM SCT050 SCT070 28/17 A2988 RMK AO2 SLP111 T02780172
KCOU 251854Z 27013G21KT 10SM SCT044 BKN070 28/17 A2990 RMK AO2 SLP117 T02830172
KCOU 251754Z 23011G19KT 10SM FEW046 SCT060 27/18 A2992 RMK AO2 SLP123 T02720183 10283 20200 55001
KCOU 251654Z 22010KT 10SM FEW023 SCT028 BKN065 27/19 A2992 RMK AO2 SLP122 T02670194
KCOU 251651Z 21012KT 10SM FEW028 FEW055 SCT065 27/20 A2992 RMK AO2
KCOU 251554Z 20007KT 10SM BKN014 BKN018 BKN025 26/21 A2992 RMK AO2 SLP124 T02560211
KCOU 251538Z 21008KT 10SM BKN012 24/21 A2993 RMK AO2 T02440211
KCOU 251454Z 20006KT 10SM BKN008 BKN035 OVC075 24/21 A2993 RMK AO2 SLP125 T02390211 58002
KCOU 251354Z 22009KT 10SM OVC006 22/21 A2993 RMK AO2 SLP127 T02220206
KCOU 251327Z 20004KT 8SM BKN004 OVC075 22/21 A2993 RMK AO2 CIG 002V007 T02170206
KCOU 251309Z 17005KT 6SM BR FEW003 BKN045 OVC075 21/20 A2993 RMK AO2 T02060200
KCOU 251254Z 16004KT 6SM BR FEW035 BKN046 OVC080 21/20 A2993 RMK AO2 SLP129 T02060200
KCOU 251154Z 15003KT 7SM BKN013 BKN039 OVC075 20/19 A2993 RMK AO2 SLP129 T02000194 10206 20194 53007
KCOU 251054Z AUTO 17003KT 7SM OVC075 20/19 A2991 RMK AO2 SLP122 T02000194
KCOU 251021Z AUTO 00000KT 4SM BR OVC075 20/19 A2991 RMK AO2 T02000189
KCOU 251014Z AUTO 16003KT 2 1/2SM BR OVC075 19/19 A2991 RMK AO2 T01940189
KCOU 251001Z AUTO 17003KT 1 3/4SM BR FEW048 BKN075 19/19 A2991 RMK AO2 T01940189
KCOU 250954Z AUTO 17003KT 3/4SM BR FEW048 SCT075 20/19 A2991 RMK AO2 SLP121 T02000189
KCOU 250949Z AUTO 18003KT 3/4SM BR FEW049 SCT075 20/19 A2991 RMK AO2
KCOU 250926Z AUTO 00000KT 1 1/4SM BR CLR 19/19 A2991 RMK AO2 T01940189
KCOU 250918Z AUTO 18004KT 3/4SM BR CLR 19/18 A2991 RMK AO2 T01940183
KCOU 250902Z AUTO 19004KT 1 3/4SM BR FEW075 19/19 A2991 RMK AO2 T01940189
KCOU 250854Z AUTO 19004KT 6SM BR BKN075 20/19 A2991 RMK AO2 SLP120 T02000189 58005
KCOU 250754Z AUTO 17004KT 10SM OVC075 20/19 A2991 RMK AO2 SLP122 T02000194
KCOU 250654Z AUTO 17003KT 7SM OVC065 20/19 A2992 RMK AO2 SLP125 T02000189
KCOU 250649Z AUTO 18004KT 6SM BR BKN065 19/19 A2992 RMK AO2
KCOU 250640Z AUTO 18004KT 2SM BR BKN065 19/19 A2992 RMK AO2 T01940189
KCOU 250554Z AUTO 18005KT 10SM CLR 19/19 A2992 RMK AO2 SLP125 T01940189 10228 20194 402330194 58001
KCOU 250454Z AUTO 14005KT 10SM CLR 20/19 A2993 RMK AO2 SLP127 T02000189
KCOU 250354Z AUTO 12003KT 10SM BKN041 21/19 A2992 RMK AO2 SLP125 T02110194
KCOU 250254Z AUTO 17003KT 10SM FEW022 BKN030 OVC037 21/20 A2992 RMK AO2 SLP126 T02110200 53013
KCOU 250154Z 00000KT 10SM OVC035 22/20 A2991 RMK AO2 SLP122 T02170200
KCOU 250106Z 23003KT 10SM FEW019 SCT029 OVC034 22/19 A2990 RMK AO2 T02170194
KCOU 250054Z 23004KT 10SM SCT017 BKN023 OVC032 22/19 A2989 RMK AO2 SLP116 T02170194
KCOU 242354Z 00000KT 10SM BKN022 OVC029 23/19 A2988 RMK AO2 SLP112 T02280194 10233 20228 55003